createdAt,value
2023-01-01T00:02:25.075Z,10.45
2023-01-01T00:04:51.872Z,9.63
2023-01-01T00:07:18.644Z,9.10
2023-01-01T00:10:03.904Z,8.40
2023-01-01T00:12:32.593Z,8.02
2023-01-01T00:14:59.568Z,7.63
2023-01-01T00:17:26.814Z,7.65
2023-01-01T00:19:53.567Z,8.52
2023-01-01T00:22:54.139Z,8.32
2023-01-01T00:25:07.427Z,8.75
2023-01-01T00:27:34.603Z,8.35
2023-01-01T00:30:01.404Z,8.32
2023-01-01T00:32:28.205Z,7.38
2023-01-01T00:34:54.934Z,7.22
2023-01-01T00:37:21.709Z,7.95
2023-01-01T00:39:48.438Z,6.75
2023-01-01T00:42:15.256Z,6.47
2023-01-01T00:44:42.013Z,5.97
2023-01-01T00:47:08.785Z,6.57
2023-01-01T00:49:35.510Z,6.50
2023-01-01T00:52:02.304Z,7.25
2023-01-01T00:54:29.085Z,7.03
2023-01-01T00:56:57.441Z,6.57
2023-01-01T00:59:28.726Z,6.35
2023-01-01T01:01:56.077Z,7.20
2023-01-01T01:04:23.713Z,6.60
2023-01-01T01:06:50.540Z,6.80
2023-01-01T01:09:17.350Z,6.53
2023-01-01T01:11:44.099Z,6.75
2023-01-01T01:14:10.999Z,6.13
2023-01-01T01:16:37.776Z,6.88
2023-01-01T01:19:05.702Z,7.18
2023-01-01T01:21:34.229Z,6.68
2023-01-01T01:24:02.890Z,6.47
2023-01-01T01:26:32.569Z,7.10
2023-01-01T01:28:59.863Z,6.90
2023-01-01T01:31:33.137Z,7.13
2023-01-01T01:33:59.993Z,6.05
2023-01-01T01:36:27.713Z,7.05
2023-01-01T01:38:55.262Z,7.15
2023-01-01T01:41:28.925Z,6.07
2023-01-01T01:44:43.842Z,6.13
2023-01-01T01:47:28.310Z,7.35
2023-01-01T01:50:22.654Z,7.88
2023-01-01T01:53:15.878Z,8.98
2023-01-01T01:55:51.238Z,9.52
2023-01-01T01:58:18.853Z,9.38
2023-01-01T02:00:45.766Z,9.73
2023-01-01T02:03:37.152Z,9.15
2023-01-01T02:06:04.448Z,7.80
2023-01-01T02:08:31.287Z,8.00
2023-01-01T02:10:58.097Z,9.45
2023-01-01T02:13:24.978Z,7.85
2023-01-01T02:15:56.415Z,7.10
2023-01-01T02:18:39.054Z,6.60
2023-01-01T02:21:16.360Z,6.85
2023-01-01T02:24:01.009Z,6.10
2023-01-01T02:26:38.879Z,5.43
2023-01-01T02:29:18.332Z,5.43
2023-01-01T02:31:56.292Z,5.47
2023-01-01T02:34:28.520Z,5.15
2023-01-01T02:36:57.745Z,5.20
2023-01-01T02:39:28.544Z,4.90
2023-01-01T02:41:57.927Z,5.15
2023-01-01T02:44:26.973Z,4.13
2023-01-01T02:46:53.902Z,4.70
2023-01-01T02:49:20.790Z,4.35
2023-01-01T02:52:08.068Z,5.40
2023-01-01T02:54:56.853Z,4.82
2023-01-01T02:57:38.010Z,4.32
2023-01-01T03:00:31.631Z,4.03
2023-01-01T03:06:00.830Z,4.35
2023-01-01T03:08:37.854Z,4.00
2023-01-01T03:11:10.066Z,3.97
2023-01-01T03:14:03.152Z,3.53
2023-01-01T03:17:03.944Z,4.43
2023-01-01T03:19:35.854Z,4.22
2023-01-01T03:22:16.269Z,4.43
2023-01-01T03:24:45.834Z,4.30
2023-01-01T03:27:18.020Z,3.53
2023-01-01T03:29:47.391Z,3.58
2023-01-01T03:32:21.301Z,3.53
2023-01-01T03:34:53.646Z,3.17
2023-01-01T03:37:26.095Z,3.10
2023-01-01T03:39:55.996Z,3.08
2023-01-01T03:42:37.033Z,3.05
2023-01-01T03:45:10.736Z,3.47
2023-01-01T03:47:37.957Z,3.03
2023-01-01T03:50:05.960Z,3.03
2023-01-01T03:52:47.523Z,3.28
2023-01-01T03:55:35.637Z,3.38
2023-01-01T03:58:08.767Z,3.25
2023-01-01T04:03:22.533Z,3.42
2023-01-01T04:05:49.377Z,3.13
2023-01-01T04:08:16.861Z,3.38
2023-01-01T04:10:48.525Z,3.38
2023-01-01T04:13:15.607Z,3.25
2023-01-01T04:15:42.321Z,3.25
2023-01-01T04:18:09.255Z,3.63
2023-01-01T04:20:36.057Z,3.25
2023-01-01T04:23:03.136Z,3.03
2023-01-01T04:25:31.018Z,3.20
2023-01-01T04:28:03.527Z,3.08
2023-01-01T04:30:30.939Z,3.13
2023-01-01T04:32:57.686Z,3.13
2023-01-01T04:35:24.600Z,3.35
2023-01-01T04:37:51.351Z,3.47
2023-01-01T04:40:18.174Z,3.08
2023-01-01T04:42:44.928Z,3.60
2023-01-01T04:45:15.003Z,3.50
2023-01-01T04:47:42.149Z,3.30
2023-01-01T04:50:09.309Z,3.80
2023-01-01T04:52:36.139Z,2.90
2023-01-01T04:55:02.845Z,3.10
2023-01-01T04:57:30.823Z,3.03
2023-01-01T04:59:57.915Z,3.53
2023-01-01T05:02:24.746Z,3.17
2023-01-01T05:04:51.646Z,2.83
2023-01-01T05:07:19.928Z,2.92
2023-01-01T05:09:46.718Z,2.92
2023-01-01T05:12:13.471Z,3.22
2023-01-01T05:14:40.202Z,2.78
2023-01-01T05:17:06.914Z,3.00
2023-01-01T05:19:33.707Z,2.63
2023-01-01T05:22:05.368Z,3.38
2023-01-01T05:24:36.438Z,2.78
2023-01-01T05:27:03.277Z,2.67
2023-01-01T05:29:30.056Z,3.20
2023-01-01T05:31:56.871Z,2.83
2023-01-01T05:34:25.359Z,3.22
2023-01-01T05:36:52.205Z,2.60
2023-01-01T05:39:18.935Z,3.10
2023-01-01T05:41:45.692Z,2.95
2023-01-01T05:44:12.534Z,3.03
2023-01-01T05:46:39.516Z,3.30
2023-01-01T05:49:06.317Z,2.78
2023-01-01T05:53:59.434Z,2.80
2023-01-01T05:56:27.414Z,3.10
2023-01-01T05:58:54.814Z,2.90
2023-01-01T06:01:30.657Z,3.05
2023-01-01T06:03:58.981Z,2.95
2023-01-01T06:06:31.223Z,3.13
2023-01-01T06:09:03.566Z,2.55
2023-01-01T06:11:31.727Z,2.90
2023-01-01T06:14:00.383Z,2.92
2023-01-01T06:16:28.992Z,2.72
2023-01-01T06:18:55.785Z,2.80
2023-01-01T06:21:24.954Z,2.80
2023-01-01T06:23:52.076Z,2.88
2023-01-01T06:26:24.561Z,2.65
2023-01-01T06:28:51.775Z,2.65
2023-01-01T06:31:24.346Z,2.65
2023-01-01T06:33:51.481Z,2.80
2023-01-01T06:36:20.495Z,2.47
2023-01-01T06:38:49.680Z,2.70
2023-01-01T06:41:22.472Z,2.50
2023-01-01T06:43:49.615Z,2.30
2023-01-01T06:46:16.401Z,2.72
2023-01-01T06:48:43.958Z,2.70
2023-01-01T06:51:15.430Z,2.90
2023-01-01T06:53:42.192Z,2.90
2023-01-01T06:56:09.909Z,2.65
2023-01-01T06:58:36.826Z,3.00
2023-01-01T07:01:08.618Z,2.50
2023-01-01T07:03:37.128Z,2.92
2023-01-01T07:06:04.705Z,2.97
2023-01-01T07:08:31.751Z,2.67
2023-01-01T07:10:58.569Z,2.75
2023-01-01T07:13:25.923Z,2.75
2023-01-01T07:15:53.364Z,2.67
2023-01-01T07:18:21.660Z,2.50
2023-01-01T07:20:52.609Z,2.30
2023-01-01T07:23:19.491Z,2.60
2023-01-01T07:25:49.391Z,2.97
2023-01-01T07:28:16.136Z,2.85
2023-01-01T07:30:43.226Z,2.33
2023-01-01T07:33:17.912Z,2.58
2023-01-01T07:35:45.946Z,2.20
2023-01-01T07:38:14.121Z,2.38
2023-01-01T07:40:41.435Z,2.53
2023-01-01T07:43:09.698Z,2.28
2023-01-01T07:45:36.599Z,2.47
2023-01-01T07:48:03.913Z,2.42
2023-01-01T07:50:32.567Z,2.33
2023-01-01T07:52:59.652Z,2.53
2023-01-01T07:55:27.326Z,2.22
2023-01-01T07:57:54.113Z,2.45
2023-01-01T08:00:22.109Z,2.50
2023-01-01T08:02:49.234Z,2.33
2023-01-01T08:05:21.183Z,2.83
2023-01-01T08:07:51.848Z,2.80
2023-01-01T08:10:20.256Z,2.25
2023-01-01T08:12:47.164Z,2.38
2023-01-01T08:15:14.853Z,2.47
2023-01-01T08:17:46.498Z,2.47
2023-01-01T08:20:14.124Z,2.20
2023-01-01T08:22:41.700Z,2.70
2023-01-01T08:25:08.927Z,2.40
2023-01-01T08:27:35.804Z,2.65
2023-01-01T08:30:02.631Z,2.60
2023-01-01T08:32:29.429Z,2.78
2023-01-01T08:34:56.374Z,2.60
2023-01-01T08:37:23.627Z,2.42
2023-01-01T08:39:51.618Z,2.80
2023-01-01T08:42:18.643Z,2.95
2023-01-01T08:44:45.533Z,3.10
2023-01-01T08:47:21.299Z,3.45
2023-01-01T08:49:48.435Z,2.60
2023-01-01T08:52:16.029Z,2.65
2023-01-01T08:54:42.887Z,2.30
2023-01-01T08:57:09.804Z,2.30
2023-01-01T08:59:36.568Z,2.60
2023-01-01T09:02:03.876Z,2.20
2023-01-01T09:04:30.978Z,2.80
2023-01-01T09:06:57.721Z,2.50
2023-01-01T09:09:30.851Z,2.42
2023-01-01T09:12:03.960Z,2.45
2023-01-01T09:14:30.978Z,2.40
2023-01-01T09:16:58.242Z,2.85
2023-01-01T09:19:25.041Z,2.60
2023-01-01T09:21:52.501Z,2.33
2023-01-01T09:24:19.237Z,2.50
2023-01-01T09:26:46.625Z,2.22
2023-01-01T09:29:13.577Z,2.88
2023-01-01T09:31:41.198Z,2.42
2023-01-01T09:34:07.944Z,2.30
2023-01-01T09:36:34.720Z,2.40
2023-01-01T09:39:02.615Z,3.00
2023-01-01T09:42:00.127Z,2.60
2023-01-01T09:44:33.904Z,2.17
2023-01-01T09:47:03.937Z,2.40
2023-01-01T09:49:42.936Z,2.40
2023-01-01T09:52:13.725Z,2.65
2023-01-01T09:55:03.252Z,2.45
2023-01-01T09:57:32.762Z,2.35
2023-01-01T10:00:00.391Z,2.60
2023-01-01T10:02:53.853Z,2.63
2023-01-01T10:05:42.595Z,2.28
2023-01-01T10:08:12.100Z,2.60
2023-01-01T10:10:41.674Z,2.83
2023-01-01T10:13:18.294Z,2.70
2023-01-01T10:15:58.651Z,3.28
2023-01-01T10:18:33.389Z,2.60
2023-01-01T10:21:13.818Z,2.90
2023-01-01T10:23:42.821Z,2.65
2023-01-01T10:26:16.445Z,2.80
2023-01-01T10:28:45.917Z,2.78
2023-01-01T10:31:19.460Z,2.70
2023-01-01T10:33:47.470Z,4.13
2023-01-01T10:36:18.054Z,2.50
2023-01-01T10:38:45.255Z,2.80
2023-01-01T10:41:19.223Z,2.53
2023-01-01T10:43:47.393Z,2.78
2023-01-01T10:46:19.602Z,2.60
2023-01-01T10:49:12.188Z,2.47
2023-01-01T10:51:47.076Z,2.40
2023-01-01T10:54:33.574Z,2.35
2023-01-01T10:57:14.958Z,2.47
2023-01-01T10:59:45.613Z,2.53
2023-01-01T11:02:28.374Z,2.20
2023-01-01T11:05:21.121Z,2.33
2023-01-01T11:07:49.076Z,2.38
2023-01-01T11:10:19.502Z,2.47
2023-01-01T11:13:04.716Z,2.33
2023-01-01T11:15:41.315Z,2.25
2023-01-01T11:18:28.218Z,2.10
2023-01-01T11:20:56.346Z,2.40
2023-01-01T11:23:33.891Z,2.30
2023-01-01T11:26:12.876Z,2.00
2023-01-01T11:28:40.897Z,2.50
2023-01-01T11:31:20.099Z,2.13
2023-01-01T11:33:55.073Z,2.33
2023-01-01T11:36:32.636Z,2.08
2023-01-01T11:39:20.512Z,1.90
2023-01-01T11:41:50.175Z,1.83
2023-01-01T11:44:37.944Z,1.90
2023-01-01T11:47:07.065Z,1.77
2023-01-01T11:49:34.448Z,1.63
2023-01-01T11:52:01.278Z,2.28
2023-01-01T11:54:34.095Z,3.28
2023-01-01T11:57:21.770Z,2.25
2023-01-01T11:59:55.470Z,2.03
2023-01-01T12:02:36.943Z,2.13
2023-01-01T12:05:25.299Z,1.73
2023-01-01T12:07:53.737Z,1.77
2023-01-01T12:10:28.937Z,2.00
2023-01-01T12:13:03.557Z,2.00
2023-01-01T12:15:46.435Z,1.80
2023-01-01T12:18:20.695Z,1.90
2023-01-01T12:20:53.373Z,1.83
2023-01-01T12:23:20.247Z,1.80
2023-01-01T12:26:00.640Z,1.92
2023-01-01T12:28:59.736Z,2.67
2023-01-01T12:32:09.324Z,2.42
2023-01-01T12:34:35.993Z,1.80
2023-01-01T12:37:11.933Z,1.85
2023-01-01T12:40:21.179Z,2.15
2023-01-01T12:43:05.690Z,2.60
2023-01-01T12:45:44.203Z,2.05
2023-01-01T12:48:48.995Z,2.00
2023-01-01T12:51:42.698Z,2.00
2023-01-01T12:54:28.351Z,1.92
2023-01-01T12:57:28.879Z,1.70
2023-01-01T12:59:57.762Z,2.10
2023-01-01T13:02:29.014Z,1.95
2023-01-01T13:05:26.255Z,1.60
2023-01-01T13:07:58.115Z,1.67
2023-01-01T13:10:37.457Z,1.75
2023-01-01T13:13:05.076Z,1.77
2023-01-01T13:15:53.897Z,1.75
2023-01-01T13:18:29.713Z,1.92
2023-01-01T13:21:00.080Z,1.98
2023-01-01T13:23:34.588Z,2.53
2023-01-01T13:26:22.763Z,2.30
2023-01-01T13:28:58.124Z,1.92
2023-01-01T13:31:40.278Z,1.73
2023-01-01T13:34:59.613Z,1.60
2023-01-01T13:37:28.006Z,1.67
2023-01-01T13:40:24.826Z,1.50
2023-01-01T13:42:57.784Z,1.40
2023-01-01T13:46:09.864Z,1.60
2023-01-01T13:48:53.824Z,1.33
2023-01-01T13:55:17.558Z,1.50
2023-01-01T13:58:02.191Z,2.00
2023-01-01T14:00:57.815Z,2.03
2023-01-01T14:03:27.782Z,1.80
2023-01-01T14:06:02.352Z,1.58
2023-01-01T14:08:34.422Z,2.00
2023-01-01T14:11:02.348Z,1.60
2023-01-01T14:13:32.405Z,1.80
2023-01-01T14:16:03.398Z,1.63
2023-01-01T14:18:56.520Z,1.65
2023-01-01T14:21:30.191Z,1.90
2023-01-01T14:24:00.703Z,1.60
2023-01-01T14:26:29.521Z,1.75
2023-01-01T14:29:03.288Z,1.50
2023-01-01T14:31:45.343Z,1.70
2023-01-01T14:34:24.203Z,1.90
2023-01-01T14:36:53.445Z,1.52
2023-01-01T14:39:29.730Z,1.60
2023-01-01T14:42:17.533Z,1.80
2023-01-01T14:44:50.395Z,1.80
2023-01-01T14:47:29.039Z,1.70
2023-01-01T14:50:04.339Z,1.70
2023-01-01T14:52:34.072Z,1.88
2023-01-01T14:55:02.110Z,1.90
2023-01-01T14:57:35.132Z,1.63
2023-01-01T15:00:04.099Z,1.98
2023-01-01T15:02:37.082Z,1.98
2023-01-01T15:05:33.275Z,2.42
2023-01-01T15:08:04.890Z,1.98
2023-01-01T15:10:34.236Z,2.40
2023-01-01T15:13:04.176Z,1.98
2023-01-01T15:15:48.957Z,1.98
2023-01-01T15:18:41.936Z,1.60
2023-01-01T15:21:21.107Z,1.98
2023-01-01T15:24:13.296Z,2.28
2023-01-01T15:26:55.037Z,2.35
2023-01-01T15:29:45.467Z,2.00
2023-01-01T15:32:15.313Z,2.85
2023-01-01T15:34:53.718Z,3.10
2023-01-01T15:37:22.197Z,2.60
2023-01-01T15:39:56.481Z,2.97
2023-01-01T15:42:36.429Z,3.13
2023-01-01T15:45:31.637Z,2.88
2023-01-01T15:48:20.051Z,3.08
2023-01-01T15:50:49.567Z,3.17
2023-01-01T15:53:25.060Z,2.70
2023-01-01T15:56:05.543Z,3.00
2023-01-01T15:58:43.129Z,3.63
2023-01-01T16:01:13.489Z,3.53
2023-01-01T16:03:42.308Z,3.30
2023-01-01T16:06:18.623Z,4.07
2023-01-01T16:08:45.464Z,3.83
2023-01-01T16:11:13.494Z,3.25
2023-01-01T16:13:40.497Z,3.35
2023-01-01T16:16:29.102Z,2.92
2023-01-01T16:18:57.024Z,2.67
2023-01-01T16:21:32.842Z,3.00
2023-01-01T16:24:00.194Z,4.15
2023-01-01T16:26:27.068Z,6.25
2023-01-01T16:28:53.840Z,10.63
2023-01-01T16:31:27.973Z,9.05
2023-01-01T16:33:56.881Z,4.32
2023-01-01T16:36:24.058Z,2.80
2023-01-01T16:38:50.799Z,2.50
2023-01-01T16:41:18.722Z,2.70
2023-01-01T16:43:46.619Z,2.75
2023-01-01T16:46:13.919Z,2.60
2023-01-01T16:48:41.433Z,3.15
2023-01-01T16:51:17.935Z,2.90
2023-01-01T16:53:44.830Z,2.92
2023-01-01T16:56:13.275Z,2.90
2023-01-01T16:58:49.724Z,7.82
2023-01-01T17:01:18.399Z,6.03
2023-01-01T17:03:45.302Z,4.15
2023-01-01T17:06:13.915Z,3.13
2023-01-01T17:08:40.835Z,3.17
2023-01-01T17:11:13.855Z,3.70
2023-01-01T17:13:41.861Z,4.32
2023-01-01T17:16:09.986Z,3.45
2023-01-01T17:19:13.366Z,3.70
2023-01-01T17:21:23.754Z,3.17
2023-01-01T17:23:51.261Z,3.45
2023-01-01T17:26:21.052Z,3.40
2023-01-01T17:28:55.008Z,5.05
2023-01-01T17:31:28.649Z,4.80
2023-01-01T17:33:55.667Z,4.68
2023-01-01T17:36:22.485Z,4.22
2023-01-01T17:38:49.337Z,4.55
2023-01-01T17:41:17.561Z,3.75
2023-01-01T17:43:47.220Z,3.63
2023-01-01T17:46:15.494Z,2.97
2023-01-01T17:48:44.011Z,2.70
2023-01-01T17:51:11.942Z,2.35
2023-01-01T17:53:39.847Z,2.38
2023-01-01T17:56:07.730Z,2.58
2023-01-01T17:58:35.919Z,2.00
2023-01-01T18:01:21.572Z,2.30
2023-01-01T18:03:51.805Z,1.88
2023-01-01T18:06:18.775Z,2.03
2023-01-01T18:08:45.575Z,2.80
2023-01-01T18:11:12.326Z,2.55
2023-01-01T18:13:39.107Z,2.38
2023-01-01T18:16:10.092Z,2.13
2023-01-01T18:18:38.472Z,2.10
2023-01-01T18:21:14.459Z,1.92
2023-01-01T18:23:41.795Z,1.70
2023-01-01T18:26:10.521Z,2.00
2023-01-01T18:28:38.338Z,2.10
2023-01-01T18:31:06.321Z,1.60
2023-01-01T18:33:34.407Z,2.08
2023-01-01T18:36:06.125Z,2.00
2023-01-01T18:38:33.615Z,1.63
2023-01-01T18:41:04.425Z,1.40
2023-01-01T18:43:31.194Z,1.73
2023-01-01T18:45:57.964Z,1.80
2023-01-01T18:48:24.782Z,1.65
2023-01-01T18:50:51.530Z,1.50
2023-01-01T18:53:22.326Z,1.42
2023-01-01T18:56:09.172Z,1.40
2023-01-01T18:58:37.056Z,1.83
2023-01-01T19:01:18.319Z,2.15
2023-01-01T19:03:49.178Z,1.83
2023-01-01T19:06:32.138Z,2.08
2023-01-01T19:09:21.578Z,1.40
2023-01-01T19:11:49.672Z,1.20
2023-01-01T19:14:19.234Z,1.30
2023-01-01T19:16:47.898Z,1.13
2023-01-01T19:19:39.417Z,1.20
2023-01-01T19:22:29.299Z,2.35
2023-01-01T19:24:56.153Z,2.60
2023-01-01T19:27:24.453Z,1.45
2023-01-01T19:29:52.213Z,1.38
2023-01-01T19:32:20.820Z,1.52
2023-01-01T19:34:47.714Z,2.15
2023-01-01T19:37:14.740Z,1.10
2023-01-01T19:39:42.479Z,1.30
2023-01-01T19:42:09.439Z,1.25
2023-01-01T19:44:36.827Z,1.10
2023-01-01T19:47:04.984Z,1.08
2023-01-01T19:49:32.006Z,1.30
2023-01-01T19:51:58.844Z,1.20
2023-01-01T19:54:26.272Z,1.05
2023-01-01T19:56:53.097Z,1.38
2023-01-01T19:59:19.941Z,1.23
2023-01-01T20:01:48.015Z,1.50
2023-01-01T20:04:24.664Z,1.30
2023-01-01T20:06:51.440Z,1.10
2023-01-01T20:09:18.128Z,2.25
2023-01-01T20:11:47.040Z,1.25
2023-01-01T20:14:17.286Z,4.75
2023-01-01T20:16:44.951Z,4.93
2023-01-01T20:19:11.723Z,2.80
2023-01-01T20:21:56.992Z,1.40
2023-01-01T20:24:24.560Z,1.63
2023-01-01T20:26:51.361Z,1.08
2023-01-01T20:29:21.182Z,1.15
2023-01-01T20:31:50.492Z,1.00
2023-01-01T20:34:17.587Z,1.08
2023-01-01T20:37:04.680Z,1.17
2023-01-01T20:39:31.922Z,1.65
2023-01-01T20:41:58.836Z,1.23
2023-01-01T20:44:26.081Z,1.23
2023-01-01T20:46:53.318Z,1.15
2023-01-01T20:49:21.085Z,1.00
2023-01-01T20:51:52.796Z,1.15
2023-01-01T20:54:21.015Z,1.10
2023-01-01T20:56:47.823Z,1.23
2023-01-01T20:59:34.683Z,0.82
2023-01-01T21:02:02.284Z,1.55
2023-01-01T21:04:29.202Z,0.98
2023-01-01T21:06:56.018Z,1.00
2023-01-01T21:09:22.771Z,1.17
2023-01-01T21:11:49.715Z,1.25
2023-01-01T21:14:24.146Z,1.20
2023-01-01T21:16:51.947Z,1.40
2023-01-01T21:19:26.151Z,1.10
2023-01-01T21:21:55.846Z,1.30
2023-01-01T21:24:28.359Z,1.25
2023-01-01T21:27:05.574Z,1.08
2023-01-01T21:29:32.914Z,1.02
2023-01-01T21:32:27.611Z,1.50
2023-01-01T21:34:55.711Z,1.38
2023-01-01T21:37:57.154Z,1.33
2023-01-01T21:40:39.423Z,1.50
2023-01-01T21:43:06.630Z,1.35
2023-01-01T21:45:40.713Z,1.23
2023-01-01T21:48:22.341Z,1.40
2023-01-01T21:50:52.032Z,1.30
2023-01-01T21:53:24.852Z,1.17
2023-01-01T21:55:53.321Z,0.98
2023-01-01T21:58:53.078Z,1.33
2023-01-01T22:01:20.757Z,0.82
2023-01-01T22:03:58.866Z,1.00
2023-01-01T22:06:34.594Z,1.05
2023-01-01T22:09:02.126Z,1.00
2023-01-01T22:11:29.693Z,1.00
2023-01-01T22:13:58.048Z,1.50
2023-01-01T22:16:29.469Z,1.30
2023-01-01T22:18:56.902Z,1.05
2023-01-01T22:21:23.905Z,1.20
2023-01-01T22:23:56.505Z,1.27
2023-01-01T22:26:29.431Z,1.27
2023-01-01T22:29:03.926Z,1.23
2023-01-01T22:31:33.359Z,1.27
2023-01-01T22:34:02.202Z,1.23
2023-01-01T22:36:33.662Z,1.23
2023-01-01T22:39:16.694Z,1.27
2023-01-01T22:41:45.386Z,1.25
2023-01-01T22:44:15.374Z,0.98
2023-01-01T22:46:42.738Z,1.05
2023-01-01T22:49:33.126Z,1.02
2023-01-01T22:52:01.078Z,1.00
2023-01-01T22:54:27.876Z,1.00
2023-01-01T22:56:54.738Z,0.80
2023-01-01T22:59:21.586Z,0.90
2023-01-01T23:01:48.422Z,1.08
2023-01-01T23:04:16.203Z,1.25
2023-01-01T23:06:43.052Z,1.35
2023-01-01T23:09:11.308Z,1.27
2023-01-01T23:11:38.492Z,1.30
2023-01-01T23:14:23.674Z,0.95
2023-01-01T23:16:50.420Z,0.98
2023-01-01T23:19:17.241Z,1.10
2023-01-01T23:21:44.381Z,1.17
2023-01-01T23:24:16.999Z,0.90
2023-01-01T23:26:44.316Z,0.90
2023-01-01T23:29:12.259Z,1.02
2023-01-01T23:31:40.101Z,1.20
2023-01-01T23:34:07.961Z,1.00
2023-01-01T23:36:34.935Z,1.10
2023-01-01T23:39:01.729Z,1.25
2023-01-01T23:41:28.508Z,1.10
2023-01-01T23:43:55.250Z,1.20
2023-01-01T23:46:22.311Z,1.20
2023-01-01T23:48:49.668Z,1.17
2023-01-01T23:51:17.853Z,1.15
2023-01-01T23:53:45.154Z,1.13
2023-01-01T23:56:12.209Z,1.10
2023-01-01T23:58:38.932Z,1.95
